createdAt,value
2019-04-07T00:00:51.187Z,83.99
2019-04-07T00:03:20.765Z,84.34
2019-04-07T00:05:50.878Z,84.30
2019-04-07T00:08:20.566Z,84.16
2019-04-07T00:10:49.573Z,84.57
2019-04-07T00:13:19.003Z,84.70
2019-04-07T00:15:48.043Z,85.23
2019-04-07T00:18:17.035Z,85.49
2019-04-07T00:20:46.057Z,85.21
2019-04-07T00:23:15.105Z,85.14
2019-04-07T00:25:44.311Z,85.13
2019-04-07T00:28:13.488Z,85.48
2019-04-07T00:30:42.883Z,85.70
2019-04-07T00:33:12.252Z,85.96
2019-04-07T00:35:41.251Z,86.06
2019-04-07T00:38:10.735Z,86.12
2019-04-07T00:40:40.397Z,86.02
2019-04-07T00:43:09.978Z,86.14
2019-04-07T00:45:39.157Z,85.79
2019-04-07T00:48:09.095Z,86.34
2019-04-07T00:50:38.359Z,86.56
2019-04-07T00:53:07.766Z,86.50
2019-04-07T00:55:36.759Z,86.75
2019-04-07T00:58:06.226Z,86.85
2019-04-07T01:00:37.326Z,86.25
2019-04-07T01:03:07.258Z,86.58
2019-04-07T01:05:40.489Z,86.31
2019-04-07T01:08:07.418Z,86.31
2019-04-07T01:10:36.937Z,86.62
2019-04-07T01:13:06.540Z,87.01
2019-04-07T01:15:36.081Z,86.74
2019-04-07T01:18:06.098Z,86.96
2019-04-07T01:20:35.447Z,86.73
2019-04-07T01:23:05.450Z,87.60
2019-04-07T01:25:35.723Z,88.43
2019-04-07T01:28:05.411Z,88.99
2019-04-07T01:30:34.938Z,89.15
2019-04-07T01:33:05.389Z,88.79
2019-04-07T01:35:44.940Z,88.38
2019-04-07T01:38:05.976Z,88.69
2019-04-07T01:40:35.582Z,87.81
2019-04-07T01:43:19.785Z,87.63
2019-04-07T01:46:06.561Z,87.78
2019-04-07T01:48:58.565Z,87.97
2019-04-07T01:51:45.580Z,88.41
2019-04-07T01:54:42.345Z,88.02
2019-04-07T01:57:30.351Z,87.75
2019-04-07T02:00:19.012Z,88.05
2019-04-07T02:03:09.981Z,88.10
2019-04-07T02:06:07.131Z,87.95
2019-04-07T02:08:44.190Z,87.88
2019-04-07T02:11:36.129Z,87.26
2019-04-07T02:14:31.213Z,88.00
2019-04-07T02:17:21.020Z,88.05
2019-04-07T02:20:03.733Z,87.89
2019-04-07T02:23:07.482Z,87.18
2019-04-07T02:25:52.775Z,87.93
2019-04-07T02:28:43.569Z,88.60
2019-04-07T02:31:32.092Z,88.86
2019-04-07T02:34:26.380Z,88.61
2019-04-07T02:37:15.349Z,88.60
2019-04-07T02:39:54.931Z,89.01
2019-04-07T02:42:42.688Z,89.50
2019-04-07T02:45:24.113Z,89.79
2019-04-07T02:47:59.764Z,90.22
2019-04-07T02:50:36.681Z,89.31
2019-04-07T02:53:28.783Z,89.30
2019-04-07T02:56:22.676Z,89.31
2019-04-07T02:59:01.329Z,89.22
2019-04-07T03:01:36.978Z,88.79
2019-04-07T03:04:26.312Z,88.69
2019-04-07T03:07:27.059Z,88.94
2019-04-07T03:10:05.161Z,88.43
2019-04-07T03:12:59.335Z,89.53
2019-04-07T03:15:34.526Z,89.80
2019-04-07T03:18:35.768Z,89.02
2019-04-07T03:21:11.778Z,89.92
2019-04-07T03:23:59.670Z,89.63
2019-04-07T03:26:47.909Z,89.92
2019-04-07T03:29:54.195Z,90.44
2019-04-07T03:32:48.411Z,90.65
2019-04-07T03:35:25.272Z,91.18
2019-04-07T03:38:15.275Z,91.20
2019-04-07T03:40:55.176Z,91.15
2019-04-07T03:44:01.755Z,87.99
2019-04-07T03:46:52.754Z,88.36
2019-04-07T03:49:33.551Z,88.28
2019-04-07T03:52:11.788Z,88.99
2019-04-07T03:55:11.722Z,89.88
2019-04-07T03:57:47.838Z,90.06
2019-04-07T04:01:12.214Z,90.12
2019-04-07T04:03:52.153Z,90.33
2019-04-07T04:06:46.100Z,90.52
2019-04-07T04:09:24.689Z,90.37
2019-04-07T04:11:58.714Z,90.34
2019-04-07T04:14:32.184Z,90.45
2019-04-07T04:17:02.024Z,90.67
2019-04-07T04:19:31.187Z,90.98
2019-04-07T04:22:00.646Z,90.88
2019-04-07T04:24:30.385Z,91.08
2019-04-07T04:26:59.608Z,91.35
2019-04-07T04:29:28.680Z,91.38
2019-04-07T04:31:59.629Z,91.05
2019-04-07T04:34:29.254Z,90.94
2019-04-07T04:36:59.931Z,90.48
2019-04-07T04:39:29.567Z,90.09
2019-04-07T04:41:58.550Z,90.37
2019-04-07T04:44:28.420Z,90.30
2019-04-07T04:46:58.380Z,90.38
2019-04-07T04:49:28.786Z,90.22
2019-04-07T04:51:58.639Z,90.56
2019-04-07T04:54:29.060Z,90.96
2019-04-07T04:56:58.920Z,91.21
2019-04-07T04:59:28.347Z,91.18
2019-04-07T05:01:57.697Z,91.14
2019-04-07T05:04:26.922Z,91.11
2019-04-07T05:06:56.983Z,91.04
2019-04-07T05:09:39.165Z,91.19
2019-04-07T05:11:57.448Z,91.33
2019-04-07T05:14:27.450Z,91.37
2019-04-07T05:16:56.661Z,91.20
2019-04-07T05:19:26.230Z,91.25
2019-04-07T05:21:55.878Z,91.89
2019-04-07T05:24:25.826Z,92.18
2019-04-07T05:26:55.788Z,91.65
2019-04-07T05:29:24.953Z,91.66
2019-04-07T05:31:54.439Z,91.78
2019-04-07T05:34:23.851Z,91.37
2019-04-07T05:36:53.393Z,90.76
2019-04-07T05:39:23.027Z,90.97
2019-04-07T05:41:52.588Z,91.18
2019-04-07T05:44:21.920Z,91.72
2019-04-07T05:46:51.606Z,91.62
2019-04-07T05:49:23.348Z,91.78
2019-04-07T05:51:51.785Z,92.11
2019-04-07T05:54:20.994Z,92.50
2019-04-07T05:56:50.242Z,92.11
2019-04-07T05:59:20.026Z,92.29
2019-04-07T06:01:51.662Z,92.27
2019-04-07T06:04:20.576Z,92.45
2019-04-07T06:06:52.730Z,92.87
2019-04-07T06:09:20.899Z,92.47
2019-04-07T06:11:49.940Z,93.11
2019-04-07T06:14:19.372Z,92.75
2019-04-07T06:16:52.518Z,92.68
2019-04-07T06:19:20.325Z,93.12
2019-04-07T06:21:49.920Z,91.29
2019-04-07T06:24:22.213Z,91.23
2019-04-07T06:26:50.425Z,91.31
2019-04-07T06:29:20.031Z,91.79
2019-04-07T06:31:49.559Z,90.60
2019-04-07T06:34:19.046Z,90.99
2019-04-07T06:36:52.701Z,90.71
2019-04-07T06:39:20.102Z,90.34
2019-04-07T06:41:49.480Z,89.94
2019-04-07T06:44:21.912Z,90.11
2019-04-07T06:47:11.909Z,90.58
2019-04-07T06:50:06.181Z,90.73
2019-04-07T06:52:42.064Z,90.50
2019-04-07T06:55:32.836Z,90.23
2019-04-07T06:58:08.357Z,90.82
2019-04-07T07:00:56.721Z,90.73
2019-04-07T07:03:49.866Z,90.15
2019-04-07T07:06:37.416Z,90.32
2019-04-07T07:09:30.689Z,90.63
2019-04-07T07:12:20.619Z,90.65
2019-04-07T07:15:02.555Z,89.52
2019-04-07T07:17:47.852Z,89.80
2019-04-07T07:20:52.678Z,89.20
2019-04-07T07:23:26.370Z,88.78
2019-04-07T07:25:55.576Z,88.66
2019-04-07T07:28:24.688Z,81.49
2019-04-07T07:30:54.684Z,79.67
2019-04-07T07:33:24.453Z,82.40
2019-04-07T07:35:53.855Z,84.00
2019-04-07T07:38:23.223Z,84.78
2019-04-07T07:40:52.640Z,84.78
2019-04-07T07:43:22.677Z,84.84
2019-04-07T07:45:52.253Z,84.59
2019-04-07T07:48:26.199Z,83.48
2019-04-07T07:50:52.112Z,82.36
2019-04-07T07:53:24.528Z,81.69
2019-04-07T07:55:51.984Z,80.88
2019-04-07T07:58:21.411Z,81.48
2019-04-07T08:00:50.683Z,80.64
2019-04-07T08:03:22.488Z,81.14
2019-04-07T08:05:51.297Z,81.18
2019-04-07T08:08:21.203Z,81.82
2019-04-07T08:10:51.749Z,81.26
2019-04-07T08:13:21.329Z,80.34
2019-04-07T08:15:51.378Z,79.62
2019-04-07T08:18:21.693Z,80.33
2019-04-07T08:20:51.246Z,79.71
2019-04-07T08:23:20.978Z,80.09
2019-04-07T08:25:52.907Z,80.24
2019-04-07T08:28:21.658Z,80.26
2019-04-07T08:30:51.333Z,81.09
2019-04-07T08:33:20.449Z,81.63
2019-04-07T08:35:50.224Z,82.18
2019-04-07T08:38:23.479Z,82.28
2019-04-07T08:40:52.910Z,82.95
2019-04-07T08:43:23.502Z,81.97
2019-04-07T08:45:53.692Z,82.96
2019-04-07T08:48:24.006Z,83.43
2019-04-07T08:50:53.166Z,82.87
2019-04-07T08:53:22.888Z,82.43
2019-04-07T08:55:54.766Z,82.09
2019-04-07T08:58:27.884Z,83.00
2019-04-07T09:00:54.979Z,82.70
2019-04-07T09:03:24.430Z,81.83
2019-04-07T09:05:56.479Z,82.28
2019-04-07T09:08:24.429Z,81.75
2019-04-07T09:11:05.316Z,81.33
2019-04-07T09:13:34.686Z,80.90
2019-04-07T09:16:17.350Z,81.46
2019-04-07T09:19:10.141Z,81.41
2019-04-07T09:21:50.693Z,78.17
2019-04-07T09:24:38.314Z,81.67
2019-04-07T09:27:23.493Z,81.18
2019-04-07T09:30:01.083Z,80.95
2019-04-07T09:32:41.642Z,80.05
2019-04-07T09:35:38.823Z,79.73
2019-04-07T09:38:33.477Z,80.06
2019-04-07T09:41:23.135Z,80.33
2019-04-07T09:44:02.868Z,78.60
2019-04-07T09:46:54.146Z,77.27
2019-04-07T09:49:48.158Z,77.92
2019-04-07T09:52:39.591Z,78.40
2019-04-07T09:55:33.730Z,76.15
2019-04-07T09:58:19.323Z,77.20
2019-04-07T10:01:07.205Z,78.31
2019-04-07T10:04:12.065Z,78.24
2019-04-07T10:07:09.632Z,77.56
2019-04-07T10:10:04.626Z,77.31
2019-04-07T10:12:50.073Z,76.96
2019-04-07T10:15:35.273Z,76.98
2019-04-07T10:18:10.850Z,77.58
2019-04-07T10:20:52.503Z,77.40
2019-04-07T10:23:43.719Z,76.79
2019-04-07T10:26:26.948Z,75.42
2019-04-07T10:29:04.589Z,75.99
2019-04-07T10:31:46.372Z,73.42
2019-04-07T10:34:27.337Z,73.92
2019-04-07T10:37:03.914Z,74.95
2019-04-07T10:39:43.287Z,76.53
2019-04-07T10:42:31.509Z,76.58
2019-04-07T10:45:18.259Z,75.36
2019-04-07T10:48:15.586Z,73.65
2019-04-07T10:51:03.059Z,75.59
2019-04-07T10:53:54.264Z,74.44
2019-04-07T10:56:30.885Z,74.76
2019-04-07T10:59:21.038Z,74.51
2019-04-07T11:02:07.029Z,72.73
2019-04-07T11:04:55.266Z,73.25
2019-04-07T11:07:33.845Z,72.64
2019-04-07T11:10:32.551Z,69.54
2019-04-07T11:13:23.195Z,67.99
2019-04-07T11:16:26.523Z,66.37
2019-04-07T11:19:17.780Z,62.42
2019-04-07T11:22:04.640Z,62.79
2019-04-07T11:25:05.379Z,64.00
2019-04-07T11:27:53.977Z,62.29
2019-04-07T11:30:52.019Z,61.67
2019-04-07T11:33:40.218Z,60.75
2019-04-07T11:36:21.656Z,61.10
2019-04-07T11:39:12.184Z,61.36
2019-04-07T11:42:01.091Z,61.54
2019-04-07T11:44:49.844Z,61.50
2019-04-07T11:47:38.023Z,62.47
2019-04-07T11:50:23.377Z,62.91
2019-04-07T11:53:04.196Z,63.79
2019-04-07T11:56:06.894Z,64.27
2019-04-07T11:58:52.923Z,62.02
2019-04-07T12:01:49.486Z,60.04
2019-04-07T12:04:40.431Z,60.60
2019-04-07T12:07:39.150Z,61.18
2019-04-07T12:10:36.478Z,62.80
2019-04-07T12:13:23.585Z,63.13
2019-04-07T12:16:14.556Z,64.29
2019-04-07T12:18:59.088Z,67.09
2019-04-07T12:21:53.071Z,66.25
2019-04-07T12:24:43.463Z,67.67
2019-04-07T12:27:35.695Z,67.66
2019-04-07T12:30:32.648Z,63.22
2019-04-07T12:33:17.944Z,62.61
2019-04-07T12:36:03.262Z,61.53
2019-04-07T12:38:57.390Z,61.86
2019-04-07T12:41:48.947Z,59.22
2019-04-07T12:44:29.005Z,57.65
2019-04-07T12:47:09.165Z,55.84
2019-04-07T12:50:00.019Z,54.24
2019-04-07T12:52:42.142Z,52.27
2019-04-07T12:55:55.035Z,52.75
2019-04-07T12:58:36.864Z,54.72
2019-04-07T13:01:25.262Z,53.07
2019-04-07T13:04:13.312Z,52.64
2019-04-07T13:06:58.978Z,53.92
2019-04-07T13:09:50.097Z,50.89
2019-04-07T13:12:37.597Z,52.86
2019-04-07T13:15:35.185Z,52.14
2019-04-07T13:18:27.746Z,53.73
2019-04-07T13:21:23.013Z,54.76
2019-04-07T13:23:57.275Z,55.35
2019-04-07T13:27:04.073Z,57.46
2019-04-07T13:29:41.210Z,56.20
2019-04-07T13:32:20.783Z,55.46
2019-04-07T13:35:10.682Z,54.44
2019-04-07T13:37:45.620Z,53.91
2019-04-07T13:40:47.019Z,51.79
2019-04-07T13:43:38.431Z,52.33
2019-04-07T13:46:30.901Z,55.22
2019-04-07T13:49:17.574Z,55.24
2019-04-07T13:52:04.391Z,53.59
2019-04-07T13:54:51.581Z,52.69
2019-04-07T13:57:57.717Z,53.77
2019-04-07T14:00:38.147Z,53.90
2019-04-07T14:03:19.225Z,55.89
2019-04-07T14:06:02.387Z,56.18
2019-04-07T14:09:00.096Z,57.29
2019-04-07T14:12:05.439Z,56.25
2019-04-07T14:15:05.259Z,56.77
2019-04-07T14:18:01.113Z,55.53
2019-04-07T14:20:44.809Z,55.36
2019-04-07T14:23:54.637Z,54.85
2019-04-07T14:26:51.588Z,55.75
2019-04-07T14:29:37.025Z,54.75
2019-04-07T14:32:21.987Z,55.09
2019-04-07T14:35:09.343Z,56.18
2019-04-07T14:37:55.825Z,57.60
2019-04-07T14:40:43.508Z,57.24
2019-04-07T14:43:29.912Z,57.72
2019-04-07T14:46:16.197Z,57.33
2019-04-07T14:49:14.129Z,57.56
2019-04-07T14:51:54.101Z,57.83
2019-04-07T14:54:33.499Z,57.60
2019-04-07T14:57:28.812Z,58.71
2019-04-07T15:00:17.286Z,57.45
2019-04-07T15:02:47.702Z,57.79
2019-04-07T15:05:25.555Z,57.35
2019-04-07T15:08:20.438Z,57.30
2019-04-07T15:10:52.764Z,59.31
2019-04-07T15:13:27.957Z,60.64
2019-04-07T15:15:57.172Z,61.24
2019-04-07T15:18:27.523Z,60.88
2019-04-07T15:21:01.193Z,60.35
2019-04-07T15:23:33.044Z,60.40
2019-04-07T15:26:03.359Z,62.77
2019-04-07T15:28:33.975Z,63.43
2019-04-07T15:31:04.280Z,62.94
2019-04-07T15:33:34.186Z,63.98
2019-04-07T15:36:07.040Z,64.31
2019-04-07T15:38:35.625Z,63.18
2019-04-07T15:41:09.900Z,62.26
2019-04-07T15:43:37.164Z,63.32
2019-04-07T15:46:07.451Z,63.29
2019-04-07T15:48:37.653Z,64.56
2019-04-07T15:51:06.807Z,65.07
2019-04-07T15:53:36.841Z,66.13
2019-04-07T15:56:07.096Z,65.80
2019-04-07T15:58:37.274Z,64.92
2019-04-07T16:01:09.049Z,64.91
2019-04-07T16:03:37.287Z,64.40
2019-04-07T16:06:07.734Z,64.69
2019-04-07T16:08:36.892Z,65.76
2019-04-07T16:11:05.916Z,66.14
2019-04-07T16:13:35.885Z,67.04
2019-04-07T16:16:05.846Z,68.00
2019-04-07T16:18:39.511Z,68.25
2019-04-07T16:21:09.018Z,68.19
2019-04-07T16:23:38.067Z,68.63
2019-04-07T16:26:07.725Z,69.59
2019-04-07T16:28:36.902Z,68.89
2019-04-07T16:31:07.363Z,69.99
2019-04-07T16:33:37.261Z,70.58
2019-04-07T16:36:06.502Z,69.81
2019-04-07T16:38:36.534Z,69.71
2019-04-07T16:41:06.561Z,69.61
2019-04-07T16:43:37.715Z,69.48
2019-04-07T16:46:07.739Z,70.08
2019-04-07T16:48:39.842Z,70.61
2019-04-07T16:51:11.279Z,70.90
2019-04-07T16:53:42.776Z,72.54
2019-04-07T16:56:11.341Z,74.38
2019-04-07T16:58:41.541Z,76.07
2019-04-07T17:01:11.033Z,77.26
2019-04-07T17:03:40.864Z,77.91
2019-04-07T17:06:12.294Z,77.13
2019-04-07T17:08:41.122Z,77.37
2019-04-07T17:11:10.867Z,76.58
2019-04-07T17:13:42.663Z,77.90
2019-04-07T17:16:12.230Z,76.40
2019-04-07T17:18:43.043Z,75.99
2019-04-07T17:21:16.222Z,75.99
2019-04-07T17:23:45.793Z,76.99
2019-04-07T17:26:14.938Z,76.17
2019-04-07T17:28:45.172Z,77.63
2019-04-07T17:31:14.816Z,76.88
2019-04-07T17:33:43.913Z,77.36
2019-04-07T17:36:17.679Z,79.04
2019-04-07T17:38:53.743Z,79.67
2019-04-07T17:41:23.459Z,79.89
2019-04-07T17:44:13.227Z,80.37
2019-04-07T17:46:49.133Z,79.46
2019-04-07T17:49:36.079Z,79.29
2019-04-07T17:52:18.617Z,79.83
2019-04-07T17:55:04.753Z,80.35
2019-04-07T17:58:11.578Z,81.44
2019-04-07T18:00:56.447Z,81.27
2019-04-07T18:03:46.248Z,81.49
2019-04-07T18:06:53.902Z,82.58
2019-04-07T18:09:37.280Z,82.19
2019-04-07T18:12:23.938Z,82.40
2019-04-07T18:15:11.699Z,83.40
2019-04-07T18:17:58.895Z,83.55
2019-04-07T18:20:38.260Z,83.39
2019-04-07T18:23:40.392Z,83.64
2019-04-07T18:26:29.738Z,84.56
2019-04-07T18:29:08.227Z,84.56
2019-04-07T18:31:58.702Z,85.45
2019-04-07T18:34:36.644Z,85.56
2019-04-07T18:37:12.961Z,85.56
2019-04-07T18:40:02.414Z,84.81
2019-04-07T18:42:59.558Z,85.27
2019-04-07T18:45:59.794Z,85.10
2019-04-07T18:48:46.552Z,85.33
2019-04-07T18:51:27.299Z,86.78
2019-04-07T18:54:14.716Z,86.16
2019-04-07T18:57:01.544Z,85.71
2019-04-07T18:59:50.615Z,85.90
2019-04-07T19:02:28.930Z,86.54
2019-04-07T19:05:26.405Z,86.66
2019-04-07T19:08:17.444Z,86.46
2019-04-07T19:11:14.235Z,86.79
2019-04-07T19:14:07.337Z,85.91
2019-04-07T19:17:00.773Z,85.86
2019-04-07T19:19:46.678Z,84.95
2019-04-07T19:22:51.273Z,85.66
2019-04-07T19:25:42.632Z,86.70
2019-04-07T19:28:19.375Z,85.98
2019-04-07T19:31:19.091Z,85.98
2019-04-07T19:34:08.307Z,84.88
2019-04-07T19:36:55.064Z,84.05
2019-04-07T19:39:36.256Z,84.99
2019-04-07T19:42:16.472Z,86.43
2019-04-07T19:44:55.439Z,85.73
2019-04-07T19:47:55.522Z,86.00
2019-04-07T19:50:37.340Z,85.52
2019-04-07T19:53:15.302Z,85.90
2019-04-07T19:55:59.557Z,84.73
2019-04-07T19:58:46.923Z,85.52
2019-04-07T20:01:35.743Z,85.42
2019-04-07T20:04:30.746Z,85.42
2019-04-07T20:07:34.034Z,85.68
2019-04-07T20:10:25.990Z,86.85
2019-04-07T20:13:11.265Z,86.47
2019-04-07T20:15:58.080Z,86.25
2019-04-07T20:18:42.426Z,85.51
2019-04-07T20:21:34.816Z,85.04
2019-04-07T20:24:21.733Z,86.18
2019-04-07T20:27:07.468Z,85.65
2019-04-07T20:29:48.434Z,85.45
2019-04-07T20:32:36.107Z,85.83
2019-04-07T20:35:28.839Z,85.65
2019-04-07T20:38:33.682Z,85.46
2019-04-07T20:41:17.368Z,85.44
2019-04-07T20:44:21.068Z,86.18
2019-04-07T20:47:28.426Z,85.52
2019-04-07T20:50:11.827Z,85.21
2019-04-07T20:53:16.479Z,85.53
2019-04-07T20:56:00.445Z,87.02
2019-04-07T20:58:53.836Z,86.87
2019-04-07T21:01:35.323Z,86.42
2019-04-07T21:04:22.286Z,87.25
2019-04-07T21:07:00.779Z,87.43
2019-04-07T21:09:48.113Z,87.64
2019-04-07T21:12:32.232Z,88.63
2019-04-07T21:15:20.842Z,89.23
2019-04-07T21:17:58.275Z,89.49
2019-04-07T21:20:48.741Z,88.42
2019-04-07T21:23:36.942Z,87.35
2019-04-07T21:26:17.521Z,87.00
2019-04-07T21:28:52.834Z,86.76
2019-04-07T21:31:46.671Z,86.22
2019-04-07T21:34:21.110Z,86.97
2019-04-07T21:37:14.799Z,87.27
2019-04-07T21:39:48.283Z,87.70
2019-04-07T21:42:45.793Z,88.02
2019-04-07T21:45:54.382Z,87.47
2019-04-07T21:48:45.455Z,87.49
2019-04-07T21:51:31.931Z,86.75
2019-04-07T21:54:30.723Z,87.36
2019-04-07T21:57:28.850Z,87.54
2019-04-07T22:00:32.951Z,86.61
2019-04-07T22:03:33.324Z,87.01
2019-04-07T22:06:26.537Z,85.78
2019-04-07T22:09:08.974Z,86.02
2019-04-07T22:11:38.084Z,86.93
2019-04-07T22:14:07.831Z,87.20
2019-04-07T22:16:37.069Z,86.06
2019-04-07T22:19:10.113Z,86.06
2019-04-07T22:21:38.249Z,86.74
2019-04-07T22:24:07.662Z,86.71
2019-04-07T22:26:37.129Z,87.38
2019-04-07T22:29:06.351Z,85.12
2019-04-07T22:31:46.579Z,85.12
2019-04-07T22:34:16.534Z,87.07
2019-04-07T22:36:47.896Z,87.64
2019-04-07T22:39:16.419Z,87.64
2019-04-07T22:41:46.247Z,87.76
2019-04-07T22:44:15.772Z,87.76
2019-04-07T22:46:48.115Z,87.15
2019-04-07T22:49:15.671Z,87.34
2019-04-07T22:51:47.083Z,87.37
2019-04-07T22:54:16.733Z,88.26
2019-04-07T22:56:46.695Z,87.90
2019-04-07T22:59:16.074Z,88.98
2019-04-07T23:01:45.133Z,88.83
2019-04-07T23:04:14.170Z,89.66
2019-04-07T23:06:43.219Z,88.63
2019-04-07T23:09:13.562Z,88.34
2019-04-07T23:11:42.706Z,88.45
2019-04-07T23:14:12.115Z,87.99
2019-04-07T23:16:42.248Z,89.30
2019-04-07T23:19:11.399Z,89.74
2019-04-07T23:21:40.450Z,89.38
2019-04-07T23:24:09.707Z,89.26
2019-04-07T23:26:38.884Z,89.01
2019-04-07T23:29:07.969Z,89.09
2019-04-07T23:31:38.402Z,88.84
2019-04-07T23:34:08.276Z,89.68
2019-04-07T23:36:38.250Z,88.46
2019-04-07T23:39:08.191Z,88.25
2019-04-07T23:41:37.612Z,88.83
2019-04-07T23:44:07.329Z,89.15
2019-04-07T23:46:36.851Z,89.50
2019-04-07T23:49:06.233Z,88.52
2019-04-07T23:51:35.266Z,88.46
2019-04-07T23:54:09.146Z,87.73
2019-04-07T23:56:39.483Z,88.82
2019-04-07T23:59:10.275Z,88.54
